• Join FlightAware (Why Join?)
  • Login
  • US Flag 
06:59PM EDT


 

Airport Tracker/Info


-or-


 

Live Flight TrackerFlight Track Log ✈ N5726M ✈ 09-May-2013 ✈ KGSO - KTTA

Flight Track Log - Related Links

Times and Time Zones

All times are in EDT time to prevent confusion due to time zone crossing. See the N5726M flight status page for this flight to view local times or setup timezone preferences in your user account.

Time Position Orientation Groundspeed Altitude Reporting Facility
EDT Latitude Longitude Course Direction KTS MPH feet Rate Location/Type
06:56PM 35.9720 -79.7887 141° Southeast  Level FlightAware Approximate
06:57PM 35.9502 -79.7652 138° Southeast  Level FlightAware Approximate
06:58PM 35.9286 -79.7414 138° Southeast  Level FlightAware Approximate
06:59PM 35.9071 -79.7176 138° Southeast  Level FlightAware Approximate
07:00PM 35.8855 -79.6939 138° Southeast  Level FlightAware Approximate
07:01PM 35.8639 -79.6702 138° Southeast  Level FlightAware Approximate
07:02PM 35.8423 -79.6464 138° Southeast  Level FlightAware Approximate
07:03PM 35.8207 -79.6227 138° Southeast  Level FlightAware Approximate
07:04PM 35.7995 -79.5986 115° Southeast  Level FlightAware Approximate
07:05PM 35.7874 -79.5663 115° Southeast  Level FlightAware Approximate
07:05PM 35.7817 -79.5528 118° Southeast 144 166 5,100  Level Washington Center
07:06PM 35.7752 -79.5339 115° Southeast  Level FlightAware Approximate
07:06PM 35.7603 -79.5058 119° Southeast 146 168 5,000  Level Washington Center
07:07PM 35.7631 -79.5016 115° Southeast  Level FlightAware Approximate
07:07PM 35.7408 -79.4614 118° Southeast 142 163 5,000  Level Washington Center
07:08PM 35.7510 -79.4692 115° Southeast  Level FlightAware Approximate
07:08PM 35.7233 -79.4194 117° Southeast 145 167 5,100  Level Washington Center
07:09PM 35.7331 -79.4413 129° Southeast  Level FlightAware Approximate
07:09PM 35.7106 -79.3678 107° East 154 177 4,800  Level Washington Center
07:10PM 35.7203 -79.3197 76° East 154 177 4,400 -480 Descending Washington Center